sensor_id;sensor_type;location;lat;lon;timestamp;P1;durP1;ratioP1;P2;durP2;ratioP2
68449;SDS011;55434;39.570;2.652;2023-01-08T00:00:45;18.00;;;5.03;;
68449;SDS011;55434;39.570;2.652;2023-01-08T00:03:11;21.77;;;5.80;;
68449;SDS011;55434;39.570;2.652;2023-01-08T00:05:39;15.85;;;5.78;;
68449;SDS011;55434;39.570;2.652;2023-01-08T00:08:08;11.32;;;4.40;;
68449;SDS011;55434;39.570;2.652;2023-01-08T00:10:35;14.70;;;4.07;;
68449;SDS011;55434;39.570;2.652;2023-01-08T00:13:06;16.55;;;4.25;;
68449;SDS011;55434;39.570;2.652;2023-01-08T00:15:32;16.08;;;4.28;;
68449;SDS011;55434;39.570;2.652;2023-01-08T00:18:00;19.80;;;4.90;;
68449;SDS011;55434;39.570;2.652;2023-01-08T00:20:27;14.35;;;3.88;;
68449;SDS011;55434;39.570;2.652;2023-01-08T00:22:54;11.90;;;3.70;;
68449;SDS011;55434;39.570;2.652;2023-01-08T00:25:20;15.50;;;4.32;;
68449;SDS011;55434;39.570;2.652;2023-01-08T00:27:46;18.83;;;4.82;;
68449;SDS011;55434;39.570;2.652;2023-01-08T00:30:12;17.10;;;4.43;;
68449;SDS011;55434;39.570;2.652;2023-01-08T00:32:38;18.73;;;4.83;;
68449;SDS011;55434;39.570;2.652;2023-01-08T00:35:04;16.98;;;4.05;;
68449;SDS011;55434;39.570;2.652;2023-01-08T00:37:30;15.18;;;4.07;;
68449;SDS011;55434;39.570;2.652;2023-01-08T00:39:56;16.30;;;3.92;;
68449;SDS011;55434;39.570;2.652;2023-01-08T00:42:22;15.30;;;3.70;;
68449;SDS011;55434;39.570;2.652;2023-01-08T00:44:48;14.32;;;3.70;;
68449;SDS011;55434;39.570;2.652;2023-01-08T00:47:14;15.13;;;3.47;;
68449;SDS011;55434;39.570;2.652;2023-01-08T00:49:40;14.23;;;4.33;;
68449;SDS011;55434;39.570;2.652;2023-01-08T00:52:06;11.90;;;3.47;;
68449;SDS011;55434;39.570;2.652;2023-01-08T00:54:31;14.70;;;3.90;;
68449;SDS011;55434;39.570;2.652;2023-01-08T00:56:57;14.68;;;3.15;;
68449;SDS011;55434;39.570;2.652;2023-01-08T00:59:26;14.10;;;3.47;;
68449;SDS011;55434;39.570;2.652;2023-01-08T01:01:52;12.97;;;3.37;;
68449;SDS011;55434;39.570;2.652;2023-01-08T01:04:21;11.60;;;2.83;;
68449;SDS011;55434;39.570;2.652;2023-01-08T01:06:47;16.70;;;3.47;;
68449;SDS011;55434;39.570;2.652;2023-01-08T01:09:13;14.10;;;2.77;;
68449;SDS011;55434;39.570;2.652;2023-01-08T01:11:40;10.70;;;3.07;;
68449;SDS011;55434;39.570;2.652;2023-01-08T01:14:05;12.35;;;2.75;;
68449;SDS011;55434;39.570;2.652;2023-01-08T01:16:31;11.68;;;2.78;;
68449;SDS011;55434;39.570;2.652;2023-01-08T01:19:00;11.15;;;2.92;;
68449;SDS011;55434;39.570;2.652;2023-01-08T01:21:28;10.30;;;3.10;;
68449;SDS011;55434;39.570;2.652;2023-01-08T01:23:57;11.93;;;3.03;;
68449;SDS011;55434;39.570;2.652;2023-01-08T01:26:24;12.63;;;3.03;;
68449;SDS011;55434;39.570;2.652;2023-01-08T01:28:53;9.05;;;3.00;;
68449;SDS011;55434;39.570;2.652;2023-01-08T01:31:20;17.58;;;3.30;;
68449;SDS011;55434;39.570;2.652;2023-01-08T01:33:47;16.37;;;4.10;;
68449;SDS011;55434;39.570;2.652;2023-01-08T01:36:14;13.80;;;3.28;;
68449;SDS011;55434;39.570;2.652;2023-01-08T01:38:42;13.68;;;3.33;;
68449;SDS011;55434;39.570;2.652;2023-01-08T01:41:17;15.20;;;2.83;;
68449;SDS011;55434;39.570;2.652;2023-01-08T01:43:48;18.67;;;3.45;;
68449;SDS011;55434;39.570;2.652;2023-01-08T01:46:32;14.80;;;3.70;;
68449;SDS011;55434;39.570;2.652;2023-01-08T01:49:09;16.65;;;3.75;;
68449;SDS011;55434;39.570;2.652;2023-01-08T01:51:48;14.98;;;3.75;;
68449;SDS011;55434;39.570;2.652;2023-01-08T01:54:17;16.17;;;4.20;;
68449;SDS011;55434;39.570;2.652;2023-01-08T01:56:43;14.63;;;3.77;;
68449;SDS011;55434;39.570;2.652;2023-01-08T01:59:10;15.25;;;4.00;;
68449;SDS011;55434;39.570;2.652;2023-01-08T02:01:36;16.05;;;4.35;;
68449;SDS011;55434;39.570;2.652;2023-01-08T02:04:02;15.98;;;4.20;;
68449;SDS011;55434;39.570;2.652;2023-01-08T02:06:36;15.52;;;4.47;;
68449;SDS011;55434;39.570;2.652;2023-01-08T02:09:28;23.30;;;4.70;;
68449;SDS011;55434;39.570;2.652;2023-01-08T02:12:16;20.92;;;4.35;;
68449;SDS011;55434;39.570;2.652;2023-01-08T02:17:49;14.13;;;3.83;;
68449;SDS011;55434;39.570;2.652;2023-01-08T02:20:23;16.27;;;4.50;;
68449;SDS011;55434;39.570;2.652;2023-01-08T02:28:20;19.35;;;3.92;;
68449;SDS011;55434;39.570;2.652;2023-01-08T02:30:47;18.55;;;3.90;;
68449;SDS011;55434;39.570;2.652;2023-01-08T02:33:14;16.70;;;4.13;;
68449;SDS011;55434;39.570;2.652;2023-01-08T02:35:41;19.70;;;4.20;;
68449;SDS011;55434;39.570;2.652;2023-01-08T02:38:48;19.98;;;4.20;;
68449;SDS011;55434;39.570;2.652;2023-01-08T02:41:46;18.02;;;4.60;;
68449;SDS011;55434;39.570;2.652;2023-01-08T02:44:19;17.60;;;4.40;;
68449;SDS011;55434;39.570;2.652;2023-01-08T02:46:59;23.13;;;4.70;;
68449;SDS011;55434;39.570;2.652;2023-01-08T02:49:30;16.97;;;4.70;;
68449;SDS011;55434;39.570;2.652;2023-01-08T02:51:58;15.13;;;4.28;;
68449;SDS011;55434;39.570;2.652;2023-01-08T02:54:27;15.73;;;4.65;;
68449;SDS011;55434;39.570;2.652;2023-01-08T02:56:57;25.20;;;4.60;;
68449;SDS011;55434;39.570;2.652;2023-01-08T02:59:26;17.08;;;4.20;;
68449;SDS011;55434;39.570;2.652;2023-01-08T03:01:55;17.10;;;4.57;;
68449;SDS011;55434;39.570;2.652;2023-01-08T03:04:22;16.83;;;4.60;;
68449;SDS011;55434;39.570;2.652;2023-01-08T03:06:49;18.02;;;3.85;;
68449;SDS011;55434;39.570;2.652;2023-01-08T03:09:15;17.33;;;4.13;;
68449;SDS011;55434;39.570;2.652;2023-01-08T03:11:46;17.50;;;5.07;;
68449;SDS011;55434;39.570;2.652;2023-01-08T03:14:45;17.10;;;4.07;;
68449;SDS011;55434;39.570;2.652;2023-01-08T03:17:32;19.17;;;4.25;;
68449;SDS011;55434;39.570;2.652;2023-01-08T03:20:04;18.45;;;4.43;;
68449;SDS011;55434;39.570;2.652;2023-01-08T03:22:34;23.10;;;4.72;;
68449;SDS011;55434;39.570;2.652;2023-01-08T03:25:03;20.63;;;4.93;;
68449;SDS011;55434;39.570;2.652;2023-01-08T03:27:31;17.03;;;3.93;;
68449;SDS011;55434;39.570;2.652;2023-01-08T03:29:59;19.25;;;4.20;;
68449;SDS011;55434;39.570;2.652;2023-01-08T03:32:28;15.55;;;3.80;;
68449;SDS011;55434;39.570;2.652;2023-01-08T03:34:55;14.77;;;4.20;;
68449;SDS011;55434;39.570;2.652;2023-01-08T03:37:28;16.48;;;4.05;;
68449;SDS011;55434;39.570;2.652;2023-01-08T03:40:13;21.37;;;4.67;;
68449;SDS011;55434;39.570;2.652;2023-01-08T03:42:46;20.45;;;4.30;;
68449;SDS011;55434;39.570;2.652;2023-01-08T03:45:12;15.88;;;4.05;;
68449;SDS011;55434;39.570;2.652;2023-01-08T03:47:38;15.98;;;4.90;;
68449;SDS011;55434;39.570;2.652;2023-01-08T03:50:07;14.73;;;3.57;;
68449;SDS011;55434;39.570;2.652;2023-01-08T03:52:37;18.88;;;4.32;;
68449;SDS011;55434;39.570;2.652;2023-01-08T03:55:02;20.08;;;4.13;;
68449;SDS011;55434;39.570;2.652;2023-01-08T03:57:28;22.23;;;3.90;;
68449;SDS011;55434;39.570;2.652;2023-01-08T03:59:54;18.92;;;3.75;;
68449;SDS011;55434;39.570;2.652;2023-01-08T04:02:20;15.70;;;3.97;;
68449;SDS011;55434;39.570;2.652;2023-01-08T04:04:46;15.93;;;3.38;;
68449;SDS011;55434;39.570;2.652;2023-01-08T04:07:12;18.25;;;3.40;;
68449;SDS011;55434;39.570;2.652;2023-01-08T04:09:39;18.63;;;4.10;;
68449;SDS011;55434;39.570;2.652;2023-01-08T04:12:05;16.90;;;3.37;;
68449;SDS011;55434;39.570;2.652;2023-01-08T04:14:31;14.27;;;3.22;;
68449;SDS011;55434;39.570;2.652;2023-01-08T04:16:57;17.45;;;3.47;;
68449;SDS011;55434;39.570;2.652;2023-01-08T04:19:23;18.37;;;3.50;;
68449;SDS011;55434;39.570;2.652;2023-01-08T04:21:50;19.33;;;4.35;;
68449;SDS011;55434;39.570;2.652;2023-01-08T04:24:17;15.73;;;3.95;;
68449;SDS011;55434;39.570;2.652;2023-01-08T04:26:43;18.55;;;3.72;;
68449;SDS011;55434;39.570;2.652;2023-01-08T04:29:09;14.20;;;3.50;;
68449;SDS011;55434;39.570;2.652;2023-01-08T04:31:36;18.67;;;3.40;;
68449;SDS011;55434;39.570;2.652;2023-01-08T04:34:02;20.67;;;3.40;;
68449;SDS011;55434;39.570;2.652;2023-01-08T04:36:28;15.13;;;3.27;;
68449;SDS011;55434;39.570;2.652;2023-01-08T04:38:53;15.38;;;3.92;;
68449;SDS011;55434;39.570;2.652;2023-01-08T04:41:20;17.00;;;3.72;;
68449;SDS011;55434;39.570;2.652;2023-01-08T04:43:46;18.37;;;4.30;;
68449;SDS011;55434;39.570;2.652;2023-01-08T04:46:11;15.33;;;3.20;;
68449;SDS011;55434;39.570;2.652;2023-01-08T04:48:37;16.93;;;3.60;;
68449;SDS011;55434;39.570;2.652;2023-01-08T04:51:05;15.43;;;3.95;;
68449;SDS011;55434;39.570;2.652;2023-01-08T04:53:32;17.87;;;3.60;;
68449;SDS011;55434;39.570;2.652;2023-01-08T04:56:07;18.27;;;3.65;;
68449;SDS011;55434;39.570;2.652;2023-01-08T04:58:34;17.00;;;3.22;;
68449;SDS011;55434;39.570;2.652;2023-01-08T05:01:08;26.27;;;3.97;;
68449;SDS011;55434;39.570;2.652;2023-01-08T05:03:37;18.52;;;4.07;;
68449;SDS011;55434;39.570;2.652;2023-01-08T05:06:04;18.83;;;3.67;;
68449;SDS011;55434;39.570;2.652;2023-01-08T05:08:32;17.20;;;3.72;;
68449;SDS011;55434;39.570;2.652;2023-01-08T05:10:58;15.60;;;3.10;;
68449;SDS011;55434;39.570;2.652;2023-01-08T05:13:24;19.38;;;3.22;;
68449;SDS011;55434;39.570;2.652;2023-01-08T05:15:50;18.00;;;3.53;;
68449;SDS011;55434;39.570;2.652;2023-01-08T05:18:18;16.00;;;3.85;;
68449;SDS011;55434;39.570;2.652;2023-01-08T05:20:44;19.33;;;3.88;;
68449;SDS011;55434;39.570;2.652;2023-01-08T05:23:10;15.10;;;3.53;;
68449;SDS011;55434;39.570;2.652;2023-01-08T05:25:36;19.60;;;4.57;;
68449;SDS011;55434;39.570;2.652;2023-01-08T05:28:01;20.73;;;4.63;;
68449;SDS011;55434;39.570;2.652;2023-01-08T05:30:27;23.92;;;5.47;;
68449;SDS011;55434;39.570;2.652;2023-01-08T05:32:53;18.10;;;4.63;;
68449;SDS011;55434;39.570;2.652;2023-01-08T05:35:19;15.37;;;3.60;;
68449;SDS011;55434;39.570;2.652;2023-01-08T05:37:45;16.25;;;3.50;;
68449;SDS011;55434;39.570;2.652;2023-01-08T05:40:11;20.25;;;4.40;;
68449;SDS011;55434;39.570;2.652;2023-01-08T05:42:36;14.03;;;3.47;;
68449;SDS011;55434;39.570;2.652;2023-01-08T05:45:03;19.95;;;3.20;;
68449;SDS011;55434;39.570;2.652;2023-01-08T05:47:30;17.05;;;3.80;;
68449;SDS011;55434;39.570;2.652;2023-01-08T05:49:57;20.03;;;4.23;;
68449;SDS011;55434;39.570;2.652;2023-01-08T05:52:23;13.77;;;2.90;;
68449;SDS011;55434;39.570;2.652;2023-01-08T05:54:49;22.27;;;4.50;;
68449;SDS011;55434;39.570;2.652;2023-01-08T05:57:15;18.90;;;3.95;;
68449;SDS011;55434;39.570;2.652;2023-01-08T05:59:41;24.97;;;4.00;;
68449;SDS011;55434;39.570;2.652;2023-01-08T06:02:07;21.63;;;4.13;;
68449;SDS011;55434;39.570;2.652;2023-01-08T06:04:33;14.90;;;3.75;;
68449;SDS011;55434;39.570;2.652;2023-01-08T06:06:59;22.77;;;4.20;;
68449;SDS011;55434;39.570;2.652;2023-01-08T06:09:25;18.08;;;3.50;;
68449;SDS011;55434;39.570;2.652;2023-01-08T06:11:51;19.13;;;3.40;;
68449;SDS011;55434;39.570;2.652;2023-01-08T06:14:17;19.73;;;3.47;;
68449;SDS011;55434;39.570;2.652;2023-01-08T06:16:44;18.38;;;3.85;;
68449;SDS011;55434;39.570;2.652;2023-01-08T06:19:13;21.67;;;5.28;;
68449;SDS011;55434;39.570;2.652;2023-01-08T06:21:39;24.65;;;4.03;;
68449;SDS011;55434;39.570;2.652;2023-01-08T06:24:07;19.57;;;3.67;;
68449;SDS011;55434;39.570;2.652;2023-01-08T06:26:33;16.02;;;3.47;;
68449;SDS011;55434;39.570;2.652;2023-01-08T06:28:59;20.17;;;3.83;;
68449;SDS011;55434;39.570;2.652;2023-01-08T06:31:25;18.35;;;4.05;;
68449;SDS011;55434;39.570;2.652;2023-01-08T06:33:50;25.23;;;4.10;;
68449;SDS011;55434;39.570;2.652;2023-01-08T06:36:16;25.40;;;4.53;;
68449;SDS011;55434;39.570;2.652;2023-01-08T06:38:42;18.03;;;3.87;;
68449;SDS011;55434;39.570;2.652;2023-01-08T06:41:09;22.42;;;4.25;;
68449;SDS011;55434;39.570;2.652;2023-01-08T06:43:35;17.52;;;3.70;;
68449;SDS011;55434;39.570;2.652;2023-01-08T06:46:02;20.85;;;3.63;;
68449;SDS011;55434;39.570;2.652;2023-01-08T06:48:29;17.63;;;3.80;;
68449;SDS011;55434;39.570;2.652;2023-01-08T06:50:57;23.65;;;3.80;;
68449;SDS011;55434;39.570;2.652;2023-01-08T06:53:24;16.02;;;3.45;;
68449;SDS011;55434;39.570;2.652;2023-01-08T06:55:50;16.27;;;3.90;;
68449;SDS011;55434;39.570;2.652;2023-01-08T06:58:23;18.50;;;3.07;;
68449;SDS011;55434;39.570;2.652;2023-01-08T07:00:52;18.90;;;3.40;;
68449;SDS011;55434;39.570;2.652;2023-01-08T07:03:18;15.70;;;3.47;;
68449;SDS011;55434;39.570;2.652;2023-01-08T07:05:47;19.08;;;3.60;;
68449;SDS011;55434;39.570;2.652;2023-01-08T07:08:17;19.10;;;4.20;;
68449;SDS011;55434;39.570;2.652;2023-01-08T07:10:43;21.55;;;4.28;;
68449;SDS011;55434;39.570;2.652;2023-01-08T07:13:11;16.45;;;3.45;;
68449;SDS011;55434;39.570;2.652;2023-01-08T07:15:40;17.55;;;4.00;;
68449;SDS011;55434;39.570;2.652;2023-01-08T07:18:07;24.33;;;4.15;;
68449;SDS011;55434;39.570;2.652;2023-01-08T07:20:35;21.27;;;3.90;;
68449;SDS011;55434;39.570;2.652;2023-01-08T07:23:05;16.75;;;3.65;;
68449;SDS011;55434;39.570;2.652;2023-01-08T07:25:33;19.27;;;3.45;;
68449;SDS011;55434;39.570;2.652;2023-01-08T07:27:59;16.23;;;3.30;;
68449;SDS011;55434;39.570;2.652;2023-01-08T07:30:26;18.27;;;3.50;;
68449;SDS011;55434;39.570;2.652;2023-01-08T07:32:52;18.42;;;3.63;;
68449;SDS011;55434;39.570;2.652;2023-01-08T07:35:17;20.93;;;3.83;;
68449;SDS011;55434;39.570;2.652;2023-01-08T07:37:43;20.73;;;3.55;;
68449;SDS011;55434;39.570;2.652;2023-01-08T07:40:09;15.80;;;3.45;;
68449;SDS011;55434;39.570;2.652;2023-01-08T07:42:36;25.20;;;3.87;;
68449;SDS011;55434;39.570;2.652;2023-01-08T07:45:03;19.63;;;3.60;;
68449;SDS011;55434;39.570;2.652;2023-01-08T07:47:29;20.90;;;4.05;;
68449;SDS011;55434;39.570;2.652;2023-01-08T07:49:55;12.37;;;3.03;;
68449;SDS011;55434;39.570;2.652;2023-01-08T07:52:20;16.80;;;4.00;;
68449;SDS011;55434;39.570;2.652;2023-01-08T07:54:46;19.33;;;3.35;;
68449;SDS011;55434;39.570;2.652;2023-01-08T07:57:12;14.27;;;3.80;;
68449;SDS011;55434;39.570;2.652;2023-01-08T07:59:38;17.92;;;3.60;;
68449;SDS011;55434;39.570;2.652;2023-01-08T08:02:03;25.03;;;3.70;;
68449;SDS011;55434;39.570;2.652;2023-01-08T08:04:29;19.20;;;4.10;;
68449;SDS011;55434;39.570;2.652;2023-01-08T08:06:55;19.57;;;3.93;;
68449;SDS011;55434;39.570;2.652;2023-01-08T08:09:21;21.88;;;4.65;;
68449;SDS011;55434;39.570;2.652;2023-01-08T08:11:47;18.20;;;4.07;;
68449;SDS011;55434;39.570;2.652;2023-01-08T08:14:13;23.67;;;4.00;;
68449;SDS011;55434;39.570;2.652;2023-01-08T08:16:38;20.02;;;3.75;;
68449;SDS011;55434;39.570;2.652;2023-01-08T08:19:04;21.20;;;4.23;;
68449;SDS011;55434;39.570;2.652;2023-01-08T08:21:30;20.83;;;3.78;;
68449;SDS011;55434;39.570;2.652;2023-01-08T08:23:56;17.33;;;3.72;;
68449;SDS011;55434;39.570;2.652;2023-01-08T08:26:22;17.50;;;3.47;;
68449;SDS011;55434;39.570;2.652;2023-01-08T08:28:48;19.42;;;3.65;;
68449;SDS011;55434;39.570;2.652;2023-01-08T08:31:15;16.35;;;3.42;;
68449;SDS011;55434;39.570;2.652;2023-01-08T08:33:49;20.90;;;3.70;;
68449;SDS011;55434;39.570;2.652;2023-01-08T08:36:15;21.10;;;3.73;;
68449;SDS011;55434;39.570;2.652;2023-01-08T08:38:41;23.80;;;3.85;;
68449;SDS011;55434;39.570;2.652;2023-01-08T08:41:06;19.37;;;3.80;;
68449;SDS011;55434;39.570;2.652;2023-01-08T08:43:32;20.15;;;4.15;;
68449;SDS011;55434;39.570;2.652;2023-01-08T08:45:58;20.67;;;3.72;;
68449;SDS011;55434;39.570;2.652;2023-01-08T08:48:27;18.15;;;3.85;;
68449;SDS011;55434;39.570;2.652;2023-01-08T08:50:53;19.27;;;3.97;;
68449;SDS011;55434;39.570;2.652;2023-01-08T08:53:24;21.92;;;3.85;;
68449;SDS011;55434;39.570;2.652;2023-01-08T08:55:53;16.92;;;3.65;;
68449;SDS011;55434;39.570;2.652;2023-01-08T08:58:19;20.25;;;3.70;;
68449;SDS011;55434;39.570;2.652;2023-01-08T09:00:49;21.70;;;3.92;;
68449;SDS011;55434;39.570;2.652;2023-01-08T09:03:15;24.77;;;3.63;;
68449;SDS011;55434;39.570;2.652;2023-01-08T09:05:44;22.95;;;4.63;;
68449;SDS011;55434;39.570;2.652;2023-01-08T09:08:11;18.90;;;3.97;;
68449;SDS011;55434;39.570;2.652;2023-01-08T09:10:37;19.92;;;4.05;;
68449;SDS011;55434;39.570;2.652;2023-01-08T09:13:05;16.95;;;3.58;;
68449;SDS011;55434;39.570;2.652;2023-01-08T09:15:31;18.83;;;5.27;;
68449;SDS011;55434;39.570;2.652;2023-01-08T09:17:56;23.47;;;4.43;;
68449;SDS011;55434;39.570;2.652;2023-01-08T09:20:23;20.42;;;4.75;;
68449;SDS011;55434;39.570;2.652;2023-01-08T09:22:50;21.25;;;4.20;;
68449;SDS011;55434;39.570;2.652;2023-01-08T09:25:17;17.52;;;4.35;;
68449;SDS011;55434;39.570;2.652;2023-01-08T09:27:43;18.90;;;4.60;;
68449;SDS011;55434;39.570;2.652;2023-01-08T09:30:09;20.20;;;4.50;;
68449;SDS011;55434;39.570;2.652;2023-01-08T09:32:35;19.90;;;4.80;;
68449;SDS011;55434;39.570;2.652;2023-01-08T09:35:02;16.10;;;4.05;;
68449;SDS011;55434;39.570;2.652;2023-01-08T09:37:29;20.65;;;4.25;;
68449;SDS011;55434;39.570;2.652;2023-01-08T09:39:55;16.73;;;3.77;;
68449;SDS011;55434;39.570;2.652;2023-01-08T09:42:21;19.00;;;4.30;;
68449;SDS011;55434;39.570;2.652;2023-01-08T09:44:51;19.60;;;4.32;;
68449;SDS011;55434;39.570;2.652;2023-01-08T09:50:02;17.77;;;3.90;;
68449;SDS011;55434;39.570;2.652;2023-01-08T09:52:31;14.63;;;4.00;;
68449;SDS011;55434;39.570;2.652;2023-01-08T09:55:00;14.07;;;3.43;;
68449;SDS011;55434;39.570;2.652;2023-01-08T09:57:26;17.67;;;3.28;;
68449;SDS011;55434;39.570;2.652;2023-01-08T09:59:53;17.10;;;4.22;;
68449;SDS011;55434;39.570;2.652;2023-01-08T10:02:20;21.07;;;4.47;;
68449;SDS011;55434;39.570;2.652;2023-01-08T10:04:57;18.67;;;3.92;;
68449;SDS011;55434;39.570;2.652;2023-01-08T10:07:24;23.92;;;4.15;;
68449;SDS011;55434;39.570;2.652;2023-01-08T10:09:52;14.68;;;3.90;;
68449;SDS011;55434;39.570;2.652;2023-01-08T10:14:55;17.90;;;4.53;;
68449;SDS011;55434;39.570;2.652;2023-01-08T10:19:49;20.90;;;4.57;;
68449;SDS011;55434;39.570;2.652;2023-01-08T10:22:16;21.47;;;4.50;;
68449;SDS011;55434;39.570;2.652;2023-01-08T10:24:44;29.40;;;5.38;;
68449;SDS011;55434;39.570;2.652;2023-01-08T10:27:12;22.50;;;4.75;;
68449;SDS011;55434;39.570;2.652;2023-01-08T10:29:51;22.25;;;4.88;;
68449;SDS011;55434;39.570;2.652;2023-01-08T10:32:18;21.35;;;4.47;;
68449;SDS011;55434;39.570;2.652;2023-01-08T10:34:54;23.23;;;4.60;;
68449;SDS011;55434;39.570;2.652;2023-01-08T10:37:23;18.13;;;4.85;;
68449;SDS011;55434;39.570;2.652;2023-01-08T10:39:50;22.20;;;5.63;;
68449;SDS011;55434;39.570;2.652;2023-01-08T10:42:18;21.58;;;4.68;;
68449;SDS011;55434;39.570;2.652;2023-01-08T10:44:51;20.00;;;4.50;;
68449;SDS011;55434;39.570;2.652;2023-01-08T10:47:30;24.45;;;5.63;;
68449;SDS011;55434;39.570;2.652;2023-01-08T10:49:59;23.58;;;4.70;;
68449;SDS011;55434;39.570;2.652;2023-01-08T10:52:28;18.23;;;4.45;;
68449;SDS011;55434;39.570;2.652;2023-01-08T10:54:57;21.08;;;4.45;;
68449;SDS011;55434;39.570;2.652;2023-01-08T10:57:38;24.48;;;5.25;;
68449;SDS011;55434;39.570;2.652;2023-01-08T11:00:20;18.90;;;4.40;;
68449;SDS011;55434;39.570;2.652;2023-01-08T11:02:47;19.75;;;4.47;;
68449;SDS011;55434;39.570;2.652;2023-01-08T11:05:14;21.70;;;4.43;;
68449;SDS011;55434;39.570;2.652;2023-01-08T11:07:40;26.08;;;4.90;;
68449;SDS011;55434;39.570;2.652;2023-01-08T11:10:18;18.77;;;4.20;;
68449;SDS011;55434;39.570;2.652;2023-01-08T11:12:47;23.08;;;4.43;;
68449;SDS011;55434;39.570;2.652;2023-01-08T11:17:45;17.63;;;4.57;;
68449;SDS011;55434;39.570;2.652;2023-01-08T11:20:21;17.25;;;4.80;;
68449;SDS011;55434;39.570;2.652;2023-01-08T11:23:12;19.70;;;5.38;;
68449;SDS011;55434;39.570;2.652;2023-01-08T11:25:42;18.87;;;4.53;;
68449;SDS011;55434;39.570;2.652;2023-01-08T11:28:24;23.45;;;4.78;;
68449;SDS011;55434;39.570;2.652;2023-01-08T11:31:02;26.65;;;4.90;;
68449;SDS011;55434;39.570;2.652;2023-01-08T11:33:36;26.35;;;5.45;;
68449;SDS011;55434;39.570;2.652;2023-01-08T11:36:21;22.20;;;5.70;;
68449;SDS011;55434;39.570;2.652;2023-01-08T11:38:52;21.93;;;4.77;;
68449;SDS011;55434;39.570;2.652;2023-01-08T11:44:08;28.55;;;5.00;;
68449;SDS011;55434;39.570;2.652;2023-01-08T11:55:14;18.35;;;4.55;;
68449;SDS011;55434;39.570;2.652;2023-01-08T12:00:44;25.77;;;4.60;;
68449;SDS011;55434;39.570;2.652;2023-01-08T12:03:33;21.80;;;3.97;;
68449;SDS011;55434;39.570;2.652;2023-01-08T12:06:11;21.30;;;4.32;;
68449;SDS011;55434;39.570;2.652;2023-01-08T12:24:10;20.40;;;4.23;;
68449;SDS011;55434;39.570;2.652;2023-01-08T12:29:50;24.30;;;4.90;;
68449;SDS011;55434;39.570;2.652;2023-01-08T12:32:23;19.83;;;4.30;;
68449;SDS011;55434;39.570;2.652;2023-01-08T12:37:33;23.03;;;4.93;;
68449;SDS011;55434;39.570;2.652;2023-01-08T12:42:59;20.55;;;3.95;;
68449;SDS011;55434;39.570;2.652;2023-01-08T12:45:31;23.33;;;4.80;;
68449;SDS011;55434;39.570;2.652;2023-01-08T12:48:05;23.67;;;5.00;;
68449;SDS011;55434;39.570;2.652;2023-01-08T12:50:35;26.02;;;5.10;;
68449;SDS011;55434;39.570;2.652;2023-01-08T12:53:09;21.55;;;4.68;;
68449;SDS011;55434;39.570;2.652;2023-01-08T12:58:24;32.08;;;5.32;;
68449;SDS011;55434;39.570;2.652;2023-01-08T13:03:34;21.60;;;4.60;;
68449;SDS011;55434;39.570;2.652;2023-01-08T13:06:04;23.42;;;5.13;;
68449;SDS011;55434;39.570;2.652;2023-01-08T13:08:37;27.17;;;5.40;;
68449;SDS011;55434;39.570;2.652;2023-01-08T13:11:05;27.05;;;5.80;;
68449;SDS011;55434;39.570;2.652;2023-01-08T13:13:33;20.63;;;4.53;;
68449;SDS011;55434;39.570;2.652;2023-01-08T13:16:05;25.85;;;5.38;;
68449;SDS011;55434;39.570;2.652;2023-01-08T13:18:31;30.85;;;6.07;;
68449;SDS011;55434;39.570;2.652;2023-01-08T13:21:01;27.60;;;5.78;;
68449;SDS011;55434;39.570;2.652;2023-01-08T13:23:29;26.70;;;5.88;;
68449;SDS011;55434;39.570;2.652;2023-01-08T13:25:57;30.23;;;6.13;;
68449;SDS011;55434;39.570;2.652;2023-01-08T13:30:51;30.50;;;6.13;;
68449;SDS011;55434;39.570;2.652;2023-01-08T13:38:43;38.00;;;6.63;;
68449;SDS011;55434;39.570;2.652;2023-01-08T13:41:26;30.67;;;6.70;;
68449;SDS011;55434;39.570;2.652;2023-01-08T13:44:38;26.92;;;6.25;;
68449;SDS011;55434;39.570;2.652;2023-01-08T13:47:00;25.92;;;5.55;;
68449;SDS011;55434;39.570;2.652;2023-01-08T13:49:47;25.80;;;6.22;;
68449;SDS011;55434;39.570;2.652;2023-01-08T13:55:31;27.60;;;5.90;;
68449;SDS011;55434;39.570;2.652;2023-01-08T13:57:56;27.20;;;6.35;;
68449;SDS011;55434;39.570;2.652;2023-01-08T14:00:37;27.75;;;6.53;;
68449;SDS011;55434;39.570;2.652;2023-01-08T14:08:57;26.38;;;5.57;;
68449;SDS011;55434;39.570;2.652;2023-01-08T14:14:13;35.92;;;6.75;;
68449;SDS011;55434;39.570;2.652;2023-01-08T14:16:41;31.00;;;6.65;;
68449;SDS011;55434;39.570;2.652;2023-01-08T14:19:10;28.57;;;6.57;;
68449;SDS011;55434;39.570;2.652;2023-01-08T14:21:55;27.20;;;6.25;;
68449;SDS011;55434;39.570;2.652;2023-01-08T14:24:23;28.05;;;6.55;;
68449;SDS011;55434;39.570;2.652;2023-01-08T14:26:54;29.30;;;6.43;;
68449;SDS011;55434;39.570;2.652;2023-01-08T14:29:23;27.83;;;6.40;;
68449;SDS011;55434;39.570;2.652;2023-01-08T14:31:51;26.10;;;5.63;;
68449;SDS011;55434;39.570;2.652;2023-01-08T14:34:22;25.85;;;5.43;;
68449;SDS011;55434;39.570;2.652;2023-01-08T14:36:51;26.45;;;5.95;;
68449;SDS011;55434;39.570;2.652;2023-01-08T14:39:22;32.10;;;6.78;;
68449;SDS011;55434;39.570;2.652;2023-01-08T14:41:53;26.90;;;5.63;;
68449;SDS011;55434;39.570;2.652;2023-01-08T14:44:38;31.97;;;6.60;;
68449;SDS011;55434;39.570;2.652;2023-01-08T14:47:05;30.80;;;5.78;;
68449;SDS011;55434;39.570;2.652;2023-01-08T14:49:40;29.65;;;6.60;;
68449;SDS011;55434;39.570;2.652;2023-01-08T14:52:09;31.50;;;5.90;;
68449;SDS011;55434;39.570;2.652;2023-01-08T14:54:37;28.73;;;5.80;;
68449;SDS011;55434;39.570;2.652;2023-01-08T14:57:04;36.67;;;6.23;;
68449;SDS011;55434;39.570;2.652;2023-01-08T14:59:30;35.30;;;6.35;;
68449;SDS011;55434;39.570;2.652;2023-01-08T15:01:58;33.20;;;5.93;;
68449;SDS011;55434;39.570;2.652;2023-01-08T15:04:26;30.08;;;6.15;;
68449;SDS011;55434;39.570;2.652;2023-01-08T15:07:04;33.87;;;6.67;;
68449;SDS011;55434;39.570;2.652;2023-01-08T15:09:40;28.52;;;5.88;;
68449;SDS011;55434;39.570;2.652;2023-01-08T15:12:06;37.90;;;6.75;;
68449;SDS011;55434;39.570;2.652;2023-01-08T15:14:47;30.20;;;6.93;;
68449;SDS011;55434;39.570;2.652;2023-01-08T15:17:16;27.10;;;6.05;;
68449;SDS011;55434;39.570;2.652;2023-01-08T15:19:46;29.02;;;6.38;;
68449;SDS011;55434;39.570;2.652;2023-01-08T15:22:18;31.95;;;5.88;;
68449;SDS011;55434;39.570;2.652;2023-01-08T15:24:59;33.47;;;6.87;;
68449;SDS011;55434;39.570;2.652;2023-01-08T15:27:27;31.25;;;6.55;;
68449;SDS011;55434;39.570;2.652;2023-01-08T15:29:55;28.98;;;8.20;;
68449;SDS011;55434;39.570;2.652;2023-01-08T15:32:29;27.83;;;5.97;;
68449;SDS011;55434;39.570;2.652;2023-01-08T15:34:59;28.73;;;5.57;;
68449;SDS011;55434;39.570;2.652;2023-01-08T15:37:25;32.83;;;6.20;;
68449;SDS011;55434;39.570;2.652;2023-01-08T15:39:51;29.27;;;5.65;;
68449;SDS011;55434;39.570;2.652;2023-01-08T15:42:21;30.80;;;5.63;;
68449;SDS011;55434;39.570;2.652;2023-01-08T15:45:12;36.80;;;5.70;;
68449;SDS011;55434;39.570;2.652;2023-01-08T15:47:41;31.00;;;7.57;;
68449;SDS011;55434;39.570;2.652;2023-01-08T15:50:07;40.58;;;5.57;;
68449;SDS011;55434;39.570;2.652;2023-01-08T15:52:34;26.23;;;5.50;;
68449;SDS011;55434;39.570;2.652;2023-01-08T15:55:02;34.85;;;6.13;;
68449;SDS011;55434;39.570;2.652;2023-01-08T15:57:28;32.45;;;6.13;;
68449;SDS011;55434;39.570;2.652;2023-01-08T15:59:54;29.20;;;5.23;;
68449;SDS011;55434;39.570;2.652;2023-01-08T16:02:22;28.98;;;6.28;;
68449;SDS011;55434;39.570;2.652;2023-01-08T16:04:51;25.88;;;4.93;;
68449;SDS011;55434;39.570;2.652;2023-01-08T16:07:20;35.47;;;5.97;;